Map

Track Data

SID SEASON NUMBER BASIN SUBBASIN NAME ISO_TIME NATURE LAT LON WMO_WIND WMO_PRES WMO_AGENCY TRACK_TYPE DIST2LAND LANDFALL IFLAG USA_AGENCY USA_ATCF_ID USA_LAT USA_LON USA_RECORD USA_STATUS USA_WIND USA_PRES USA_SSHS USA_R34_NE USA_R34_SE USA_R34_SW USA_R34_NW USA_R50_NE USA_R50_SE USA_R50_SW USA_R50_NW USA_R64_NE USA_R64_SE USA_R64_SW USA_R64_NW USA_POCI USA_ROCI USA_RMW USA_EYE TOKYO_LAT TOKYO_LON TOKYO_GRADE TOKYO_WIND TOKYO_PRES TOKYO_R50_DIR TOKYO_R50_LONG TOKYO_R50_SHORT TOKYO_R30_DIR TOKYO_R30_LONG TOKYO_R30_SHORT TOKYO_LAND CMA_LAT CMA_LON CMA_CAT CMA_WIND CMA_PRES HKO_LAT HKO_LON HKO_CAT HKO_WIND HKO_PRES NEWDELHI_LAT NEWDELHI_LON NEWDELHI_GRADE NEWDELHI_WIND NEWDELHI_PRES NEWDELHI_CI NEWDELHI_DP NEWDELHI_POCI REUNION_LAT REUNION_LON REUNION_TYPE REUNION_WIND REUNION_PRES REUNION_TNUM REUNION_CI REUNION_RMW REUNION_R34_NE REUNION_R34_SE REUNION_R34_SW REUNION_R34_NW REUNION_R50_NE REUNION_R50_SE REUNION_R50_SW REUNION_R50_NW REUNION_R64_NE REUNION_R64_SE REUNION_R64_SW REUNION_R64_NW BOM_LAT BOM_LON BOM_TYPE BOM_WIND BOM_PRES BOM_TNUM BOM_CI BOM_RMW BOM_R34_NE BOM_R34_SE BOM_R34_SW BOM_R34_NW BOM_R50_NE BOM_R50_SE BOM_R50_SW BOM_R50_NW BOM_R64_NE BOM_R64_SE BOM_R64_SW BOM_R64_NW BOM_ROCI BOM_POCI BOM_EYE BOM_POS_METHOD BOM_PRES_METHOD NADI_LAT NADI_LON NADI_CAT NADI_WIND NADI_PRES WELLINGTON_LAT WELLINGTON_LON WELLINGTON_WIND WELLINGTON_PRES DS824_LAT DS824_LON DS824_STAGE DS824_WIND DS824_PRES TD9636_LAT TD9636_LON TD9636_STAGE TD9636_WIND TD9636_PRES TD9635_LAT TD9635_LON TD9635_WIND TD9635_PRES TD9635_ROCI NEUMANN_LAT NEUMANN_LON NEUMANN_CLASS NEUMANN_WIND NEUMANN_PRES MLC_LAT MLC_LON MLC_CLASS MLC_WIND MLC_PRES USA_GUST BOM_GUST BOM_GUST_PER REUNION_GUST REUNION_GUST_PER USA_SEAHGT USA_SEARAD_NE USA_SEARAD_SE USA_SEARAD_SW USA_SEARAD_NW STORM_SPEED STORM_DIR
1969258N12313 1969 77 NA NA HOLLY 1969-09-14 12:00:00 TS 11.9000 -47.4000 25 hurdat_atl main 943 933 O_____________ hurdat_atl AL171969 11.9000 -47.4000 TD 25 -1 8 299
1969258N12313 1969 77 NA NA HOLLY 1969-09-14 15:00:00 TS 12.1051 -47.7773 main 935 929 P_____________ AL171969 12.1051 -47.7773 TD 27 -1 8 300
1969258N12313 1969 77 NA NA HOLLY 1969-09-14 18:00:00 TS 12.3000 -48.1000 30 1000 hurdat_atl main 936 930 O_____________ hurdat_atl AL171969 12.3000 -48.1000 TD 30 1000 -1 7 305
1969258N12313 1969 77 NA NA HOLLY 1969-09-14 21:00:00 TS 12.4849 -48.3301 main 944 939 P_____________ AL171969 12.4849 -48.3301 TD 35 0 6 316
1969258N12313 1969 77 NA NA HOLLY 1969-09-15 00:00:00 TS 12.7000 -48.5000 40 hurdat_atl main 953 953 O_____________ hurdat_atl AL171969 12.7000 -48.5000 TS 40 0 6 326
1969258N12313 1969 77 NA NA HOLLY 1969-09-15 03:00:00 TS 12.9775 -48.6650 main 972 972 P_____________ AL171969 12.9775 -48.6650 TS 45 0 7 334
1969258N12313 1969 77 NA NA HOLLY 1969-09-15 06:00:00 TS 13.3000 -48.8000 50 hurdat_atl main 997 997 O_____________ hurdat_atl AL171969 13.3000 -48.8000 TS 50 0 7 343
1969258N12313 1969 77 NA NA HOLLY 1969-09-15 09:00:00 TS 13.6574 -48.8851 main 1033 1033 P_____________ AL171969 13.6574 -48.8851 TS 55 0 7 345
1969258N12313 1969 77 NA NA HOLLY 1969-09-15 12:00:00 TS 14.0000 -49.0000 60 hurdat_atl main 1059 1059 O_____________ hurdat_atl AL171969 14.0000 -49.0000 TS 60 0 7 331
1969258N12313 1969 77 NA NA HOLLY 1969-09-15 15:00:00 TS 14.2650 -49.2275 main 1082 1078 P_____________ AL171969 14.2650 -49.2275 TS 67 1 7 316
1969258N12313 1969 77 NA NA HOLLY 1969-09-15 18:00:00 TS 14.5000 -49.5000 75 992 hurdat_atl main 1091 1091 O_____________ hurdat_atl AL171969 14.5000 -49.5000 HU 75 992 1 7 313
1969258N12313 1969 77 NA NA HOLLY 1969-09-15 21:00:00 TS 14.7650 -49.7724 main 1106 1102 P_____________ AL171969 14.7650 -49.7724 HU 72 1 7 316
1969258N12313 1969 77 NA NA HOLLY 1969-09-16 00:00:00 TS 15.0000 -50.0000 70 hurdat_atl main 1117 1117 O_____________ hurdat_atl AL171969 15.0000 -50.0000 HU 70 1 5 320
1969258N12313 1969 77 NA NA HOLLY 1969-09-16 03:00:00 TS 15.1724 -50.1226 main 1133 1129 P_____________ AL171969 15.1724 -50.1226 HU 67 1 4 327
1969258N12313 1969 77 NA NA HOLLY 1969-09-16 06:00:00 TS 15.3000 -50.2000 65 hurdat_atl main 1139 1139 O_____________ hurdat_atl AL171969 15.3000 -50.2000 HU 65 1 3 325
1969258N12313 1969 77 NA NA HOLLY 1969-09-16 09:00:00 TS 15.3849 -50.2776 main 1146 1146 P_____________ AL171969 15.3849 -50.2776 HU 65 1 3 316
1969258N12313 1969 77 NA NA HOLLY 1969-09-16 12:00:00 TS 15.5000 -50.4000 65 994 hurdat_atl main 1152 1152 O_____________ hurdat_atl AL171969 15.5000 -50.4000 HU 65 994 1 5 315
1969258N12313 1969 77 NA NA HOLLY 1969-09-16 15:00:00 TS 15.7351 -50.6424 main 1165 1162 P_____________ AL171969 15.7351 -50.6424 HU 67 989 1 7 316
1969258N12313 1969 77 NA NA HOLLY 1969-09-16 18:00:00 TS 16.0000 -50.9000 70 984 hurdat_atl main 1187 1187 O_____________ hurdat_atl AL171969 16.0000 -50.9000 HU 70 984 1 6 321
1969258N12313 1969 77 NA NA HOLLY 1969-09-16 21:00:00 TS 16.2224 -51.0501 main 1202 1202 P_____________ AL171969 16.2224 -51.0501 HU 67 991 1 5 324
1969258N12313 1969 77 NA NA HOLLY 1969-09-17 00:00:00 TS 16.4000 -51.2000 65 999 hurdat_atl main 1220 1217 O_____________ hurdat_atl AL171969 16.4000 -51.2000 HU 65 999 1 5 308
1969258N12313 1969 77 NA NA HOLLY 1969-09-17 03:00:00 TS 16.5075 -51.4351 main 1223 1202 P_____________ AL171969 16.5075 -51.4351 HU 65 999 1 5 293
1969258N12313 1969 77 NA NA HOLLY 1969-09-17 06:00:00 TS 16.6000 -51.7000 65 hurdat_atl main 1202 1190 I_____________ hurdat_atl AL171969 16.6000 -51.7000 HU 65 999 1 5 298
1969258N12313 1969 77 NA NA HOLLY 1969-09-17 09:00:00 TS 16.7573 -51.9200 main 1196 1176 P_____________ AL171969 16.7573 -51.9200 HU 65 999 1 6 302
1969258N12313 1969 77 NA NA HOLLY 1969-09-17 12:00:00 TS 16.9000 -52.2000 65 1000 hurdat_atl main 1176 1148 O_____________ hurdat_atl AL171969 16.9000 -52.2000 HU 65 1000 1 7 287
1969258N12313 1969 77 NA NA HOLLY 1969-09-17 15:00:00 TS 16.9652 -52.6351 main 1148 1106 P_____________ AL171969 16.9652 -52.6351 HU 65 1001 1 9 277
1969258N12313 1969 77 NA NA HOLLY 1969-09-17 18:00:00 TS 17.0000 -53.1000 65 1002 hurdat_atl main 1106 1081 O_____________ hurdat_atl AL171969 17.0000 -53.1000 HU 65 1002 1 8 277
1969258N12313 1969 77 NA NA HOLLY 1969-09-17 21:00:00 TS 17.0649 -53.4799 main 1081 1056 P_____________ AL171969 17.0649 -53.4799 HU 55 1003 0 7 279
1969258N12313 1969 77 NA NA HOLLY 1969-09-18 00:00:00 TS 17.1000 -53.8000 45 1004 hurdat_atl main 1056 1041 O_____________ hurdat_atl AL171969 17.1000 -53.8000 TS 45 1004 0 5 270
1969258N12313 1969 77 NA NA HOLLY 1969-09-18 03:00:00 TS 17.0648 -54.0350 main 1041 1010 P_____________ AL171969 17.0648 -54.0350 TS 45 0 5 258
1969258N12313 1969 77 NA NA HOLLY 1969-09-18 06:00:00 TS 17.0000 -54.3000 45 hurdat_atl main 1010 972 O_____________ hurdat_atl AL171969 17.0000 -54.3000 TS 45 0 7 261
1969258N12313 1969 77 NA NA HOLLY 1969-09-18 09:00:00 TS 16.9503 -54.7800 main 972 934 P_____________ AL171969 16.9503 -54.7800 TS 42 0 9 263
1969258N12313 1969 77 NA NA HOLLY 1969-09-18 12:00:00 TS 16.9000 -55.2000 40 hurdat_atl main 934 927 O_____________ hurdat_atl AL171969 16.9000 -55.2000 TS 40 0 5 259
1969258N12313 1969 77 NA NA HOLLY 1969-09-18 15:00:00 TS 16.8498 -55.3024 main 919 919 P_____________ AL171969 16.8498 -55.3024 TS 37 0 1 223
1969258N12313 1969 77 NA NA HOLLY 1969-09-18 18:00:00 TS 16.8000 -55.3000 35 hurdat_atl main 919 919 O_____________ hurdat_atl AL171969 16.8000 -55.3000 TS 35 0 2 123
1969258N12313 1969 77 NA NA HOLLY 1969-09-18 21:00:00 TS 16.7629 -55.1672 main 926 904 P_____________ AL171969 16.7629 -55.1672 TS 32 -1 2 242
1969258N12313 1969 77 NA NA HOLLY 1969-09-19 00:00:00 TS 16.7000 -55.5000 30 hurdat_atl main 896 795 O_____________ hurdat_atl AL171969 16.7000 -55.5000 TD 30 -1 18 264
1969258N12313 1969 77 NA NA HOLLY 1969-09-19 03:00:00 TS 16.5624 -57.0184 main 789 688 P_____________ AL171969 16.5624 -57.0184 TD 30 -1 31 264
1969258N12313 1969 77 NA NA HOLLY 1969-09-19 06:00:00 TS 16.4000 -58.7000 30 hurdat_atl main 684 647 O_____________ hurdat_atl AL171969 16.4000 -58.7000 TD 30 -1 24 264
1969258N12313 1969 77 NA NA HOLLY 1969-09-19 09:00:00 TS 16.2980 -59.5143 main 647 625 P_____________ AL171969 16.2980 -59.5143 TD 30 -1 13 261
1969258N12313 1969 77 NA NA HOLLY 1969-09-19 12:00:00 TS 16.2000 -60.0000 30 hurdat_atl main 625 590 O_____________ hurdat_atl AL171969 16.2000 -60.0000 TD 30 -1 10 255
1969258N12313 1969 77 NA CS HOLLY 1969-09-19 15:00:00 TS 16.0422 -60.5225 main 595 552 P_____________ AL171969 16.0422 -60.5225 TD 27 -1 10 253
1969258N12313 1969 77 NA CS HOLLY 1969-09-19 18:00:00 TS 15.9000 -61.0000 25 hurdat_atl main 552 506 O_____________ hurdat_atl AL171969 15.9000 -61.0000 TD 25 -1 10 258
1969258N12313 1969 77 NA CS HOLLY 1969-09-19 21:00:00 TS 15.8499 -61.4998 main 512 467 P_____________ AL171969 15.8499 -61.4998 TD 25 -1 10 264
1969258N12313 1969 77 NA CS HOLLY 1969-09-20 00:00:00 TS 15.8000 -62.0000 25 hurdat_atl main 467 432 O_____________ hurdat_atl AL171969 15.8000 -62.0000 TD 25 -1 10 259
1969258N12313 1969 77 NA CS HOLLY 1969-09-20 03:00:00 TS 15.6574 -62.5001 main 432 408 P_____________ AL171969 15.6574 -62.5001 TD 25 -1 10 253
1969258N12313 1969 77 NA CS HOLLY 1969-09-20 06:00:00 TS 15.5000 -63.0000 25 hurdat_atl main 408 380 O_____________ hurdat_atl AL171969 15.5000 -63.0000 TD 25 -1 10 255
1969258N12313 1969 77 NA CS HOLLY 1969-09-20 09:00:00 TS 15.3999 -63.4998 main 380 357 P_____________ AL171969 15.3999 -63.4998 TD 25 -1 10 258
1969258N12313 1969 77 NA CS HOLLY 1969-09-20 12:00:00 TS 15.3000 -64.0000 25 hurdat_atl main 357 342 O_____________ hurdat_atl AL171969 15.3000 -64.0000 TD 25 -1 10 256
1969258N12313 1969 77 NA CS HOLLY 1969-09-20 15:00:00 TS 15.1499 -64.5075 main 352 341 P_____________ AL171969 15.1499 -64.5075 TD 25 -1 10 253
1969258N12313 1969 77 NA CS HOLLY 1969-09-20 18:00:00 TS 15.0000 -65.0000 25 hurdat_atl main 346 341 O_____________ hurdat_atl AL171969 15.0000 -65.0000 TD 25 -1 10 254
1969258N12313 1969 77 NA CS HOLLY 1969-09-20 21:00:00 TS 14.8876 -65.4600 main 343 341 P_____________ AL171969 14.8876 -65.4600 TD 25 -1 9 257
1969258N12313 1969 77 NA CS HOLLY 1969-09-21 00:00:00 TS 14.8000 -65.9000 25 hurdat_atl main 348 O_____________ hurdat_atl AL171969 14.8000 -65.9000 TD 25 -1 9 258

About IBTrACS Database

This database is a web-friendly format of International Best Track Archive for Climate Stewardship (IBTrACS), a global best track data archive curated by NOAA dating back to 1842.

Updated: 2021-12-06